Pagina principale
METAR-TAF:

METAR-TAF

Aeroporti :

Aeroporto di Stoccolma-Arlanda

Stoccolma-Arlanda, Svezia

latitudine: 59-39N, longitudine: 017-57E, altezza: 38 m

Osservazione

Il bollettino è stato emesso 24 minuti fa, alle 20:50 UTC
Vento 13 kt da nord/nord-est
Temperature 3°C
Umidità 75%
Pressione 1039 hPa
Visibilità 10 km o più
Cielo coperto ad un'altezza di 2300 ft

METAR: ESSA 182050Z 03013KT 9999 OVC023 03/M01 Q1039 R01L/09//95 R08/09//95 R01R/09//95 NOSIG

Ora: 22:14 (21:14 UTC)

Previsione

Il bollettino è stato emesso 3 ore e 44 minuti fa, alle 17:30 UTC
Previsione valida dal 18 alle 18 UTC al 19 alle 18 UTC
Vento 12 kt da nord/nord-est
Visibilità 10 km o più
Nuvoloso ad un'altezza di 2000 ft

TAF: ESSA 181730Z 1818/1918 02012KT 9999 BKN020

Osservazioni e previsioni meteorologiche di più di 4000 aeroporti (messaggi METAR e TAF).

Le stazioni disponibili sono rappresentate dai dischi gialli e rossi sulla carta.

Puntare il mouse per vedere il nome della stazione.

Clicca sopra per visualizzare le osservazioni e previsioni meteorologiche.

Per cambiare la mappa : fare clic sui pulsanti verdi con una croce nera per ingrandire, il pulsante verde con un trattino per diminuire, o sulla freccia verde per le mappe adiacenti.


METAR-TAF: